createdAt,value
2018-09-08T00:01:14.334Z,1.23
2018-09-08T00:04:18.607Z,1.47
2018-09-08T00:07:28.125Z,1.63
2018-09-08T00:10:32.409Z,1.90
2018-09-08T00:13:36.665Z,1.77
2018-09-08T00:16:46.267Z,1.70
2018-09-08T00:19:55.859Z,1.70
2018-09-08T00:23:05.511Z,1.83
2018-09-08T00:26:15.119Z,1.23
2018-09-08T00:29:24.577Z,1.20
2018-09-08T00:32:28.837Z,1.50
2018-09-08T00:35:33.176Z,1.67
2018-09-08T00:38:37.417Z,1.77
2018-09-08T00:41:41.719Z,2.13
2018-09-08T00:44:46.207Z,2.30
2018-09-08T00:47:50.556Z,2.50
2018-09-08T00:50:54.857Z,2.50
2018-09-08T00:53:59.628Z,3.17
2018-09-08T00:57:03.898Z,3.50
2018-09-08T01:00:08.194Z,3.93
2018-09-08T01:03:12.714Z,3.83
2018-09-08T01:06:16.989Z,3.77
2018-09-08T01:09:21.321Z,4.30
2018-09-08T01:12:25.591Z,5.20
2018-09-08T01:15:29.940Z,4.50
2018-09-08T01:18:36.778Z,5.53
2018-09-08T01:21:41.027Z,5.57
2018-09-08T01:24:45.432Z,5.70
2018-09-08T01:27:49.750Z,5.93
2018-09-08T01:30:53.998Z,6.33
2018-09-08T01:33:58.310Z,6.87
2018-09-08T01:37:02.603Z,7.37
2018-09-08T01:40:08.550Z,6.50
2018-09-08T01:43:13.056Z,5.70
2018-09-08T01:46:17.357Z,6.30
2018-09-08T01:49:21.654Z,6.80
2018-09-08T01:52:25.964Z,7.40
2018-09-08T01:55:30.212Z,7.20
2018-09-08T01:58:34.478Z,6.57
2018-09-08T02:01:38.852Z,7.70
2018-09-08T02:04:43.153Z,7.30
2018-09-08T02:07:47.451Z,6.80
2018-09-08T02:10:51.852Z,7.90
2018-09-08T02:13:56.317Z,7.57
2018-09-08T02:17:00.605Z,8.33
2018-09-08T02:20:04.983Z,8.20
2018-09-08T02:23:09.274Z,8.57
2018-09-08T02:26:13.504Z,8.57
2018-09-08T02:29:17.769Z,8.47
2018-09-08T02:32:22.061Z,9.13
2018-09-08T02:35:26.611Z,9.43
2018-09-08T02:38:30.994Z,8.93
2018-09-08T02:41:35.276Z,9.47
2018-09-08T02:44:39.511Z,8.50
2018-09-08T02:47:43.817Z,8.63
2018-09-08T02:50:46.565Z,7.73
2018-09-08T02:53:49.341Z,7.47
2018-09-08T02:56:52.091Z,6.77
2018-09-08T02:59:54.816Z,6.50
2018-09-08T03:02:57.564Z,6.77
2018-09-08T03:06:00.303Z,6.67
2018-09-08T03:09:03.059Z,5.10
2018-09-08T03:12:05.820Z,5.10
2018-09-08T03:15:08.573Z,5.17
2018-09-08T03:18:11.319Z,5.67
2018-09-08T03:21:14.069Z,6.90
2018-09-08T03:24:16.803Z,7.70
2018-09-08T03:27:19.565Z,8.03
2018-09-08T03:30:22.302Z,8.53
2018-09-08T03:33:25.034Z,9.90
2018-09-08T03:36:27.833Z,10.47
2018-09-08T03:39:30.591Z,11.00
2018-09-08T03:42:33.352Z,11.30
2018-09-08T03:45:36.140Z,11.50
2018-09-08T03:48:38.856Z,12.13
2018-09-08T03:51:41.601Z,13.00
2018-09-08T03:54:44.406Z,12.60
2018-09-08T03:57:47.144Z,12.67
2018-09-08T04:00:49.889Z,13.43
2018-09-08T04:03:54.195Z,13.77
2018-09-08T04:06:58.540Z,12.73
2018-09-08T04:10:02.776Z,13.13
2018-09-08T04:13:07.284Z,13.30
2018-09-08T04:16:11.588Z,14.43
2018-09-08T04:19:15.913Z,13.97
2018-09-08T04:22:24.482Z,14.10
2018-09-08T04:25:28.679Z,13.17
2018-09-08T04:28:33.641Z,12.67
2018-09-08T04:31:38.028Z,14.03
2018-09-08T04:34:42.384Z,13.63
2018-09-08T04:37:46.735Z,13.00
2018-09-08T04:40:51.279Z,13.47
2018-09-08T04:43:55.567Z,12.57
2018-09-08T04:46:59.910Z,12.83
2018-09-08T04:50:04.235Z,13.33
2018-09-08T04:53:08.580Z,12.00
2018-09-08T04:56:12.955Z,11.53
2018-09-08T04:59:17.285Z,10.50
2018-09-08T05:02:21.640Z,11.33
2018-09-08T05:05:25.895Z,12.57
2018-09-08T05:08:30.185Z,11.37
2018-09-08T05:11:34.443Z,12.37
2018-09-08T05:14:38.701Z,12.03
2018-09-08T05:17:42.922Z,11.37
2018-09-08T05:20:47.206Z,11.10
2018-09-08T05:23:51.557Z,11.13
2018-09-08T05:26:55.901Z,10.63
2018-09-08T05:30:00.265Z,10.97
2018-09-08T05:33:04.622Z,11.77
2018-09-08T05:36:08.903Z,11.73
2018-09-08T05:39:13.248Z,11.43
2018-09-08T05:42:17.540Z,10.70
2018-09-08T05:45:21.852Z,11.33
2018-09-08T05:48:26.138Z,11.17
2018-09-08T05:51:30.461Z,12.13
2018-09-08T05:54:34.877Z,11.07
2018-09-08T05:57:39.249Z,10.37
2018-09-08T06:00:43.567Z,10.77
2018-09-08T06:03:47.870Z,9.63
2018-09-08T06:06:56.277Z,9.23
2018-09-08T06:10:00.626Z,10.50
2018-09-08T06:13:04.913Z,8.83
2018-09-08T06:16:09.269Z,9.00
2018-09-08T06:19:13.581Z,9.20
2018-09-08T06:22:17.894Z,7.70
2018-09-08T06:25:22.233Z,7.73
2018-09-08T06:28:26.549Z,7.30
2018-09-08T06:31:30.862Z,6.90
2018-09-08T06:34:35.170Z,6.70
2018-09-08T06:37:39.422Z,6.50
2018-09-08T06:40:43.701Z,6.67
2018-09-08T06:43:47.978Z,6.50
2018-09-08T06:46:52.341Z,7.40
2018-09-08T06:49:56.743Z,5.00
2018-09-08T06:53:01.077Z,7.33
2018-09-08T06:56:05.414Z,5.63
2018-09-08T06:59:09.728Z,5.73
2018-09-08T07:02:14.061Z,6.43
2018-09-08T07:05:18.390Z,5.83
2018-09-08T07:08:22.722Z,5.30
2018-09-08T07:11:26.997Z,4.50
2018-09-08T07:14:31.328Z,4.90
2018-09-08T07:17:35.639Z,4.67
2018-09-08T07:20:39.916Z,4.30
2018-09-08T07:23:44.281Z,4.67
2018-09-08T07:26:48.578Z,4.93
2018-09-08T07:29:52.926Z,4.30
2018-09-08T07:32:57.238Z,3.90
2018-09-08T07:36:01.559Z,3.40
2018-09-08T07:39:08.793Z,4.60
2018-09-08T07:42:13.103Z,4.10
2018-09-08T07:45:17.512Z,3.83
2018-09-08T07:48:21.823Z,3.93
2018-09-08T07:51:26.249Z,4.37
2018-09-08T07:54:30.511Z,4.10
2018-09-08T07:57:34.871Z,3.90
2018-09-08T08:00:39.185Z,3.50
2018-09-08T08:03:43.503Z,2.70
2018-09-08T08:06:47.864Z,3.10
2018-09-08T08:09:52.154Z,2.77
2018-09-08T08:12:56.477Z,2.70
2018-09-08T08:16:00.799Z,2.97
2018-09-08T08:19:05.218Z,3.30
2018-09-08T08:22:09.525Z,3.10
2018-09-08T08:25:13.874Z,2.70
2018-09-08T08:28:18.159Z,2.80
2018-09-08T08:31:22.486Z,2.60
2018-09-08T08:34:26.825Z,2.27
2018-09-08T08:37:31.141Z,2.00
2018-09-08T08:40:35.468Z,1.83
2018-09-08T08:43:39.726Z,2.30
2018-09-08T08:46:44.240Z,2.30
2018-09-08T08:50:04.495Z,2.47
2018-09-08T08:54:20.822Z,2.53
2018-09-08T08:57:25.208Z,1.90
2018-09-08T09:00:29.548Z,1.70
2018-09-08T09:03:33.860Z,1.90
2018-09-08T09:06:38.281Z,2.00
2018-09-08T09:09:44.065Z,1.80
2018-09-08T09:12:48.450Z,2.20
2018-09-08T09:15:52.753Z,2.67
2018-09-08T09:19:28.707Z,1.97
2018-09-08T09:22:50.125Z,2.40
2018-09-08T09:25:54.400Z,2.27
2018-09-08T09:28:58.765Z,2.03
2018-09-08T09:32:03.084Z,2.30
2018-09-08T09:35:09.680Z,2.33
2018-09-08T09:38:13.990Z,2.50
2018-09-08T09:41:18.288Z,2.07
2018-09-08T09:44:22.666Z,2.17
2018-09-08T09:47:26.930Z,2.10
2018-09-08T09:50:31.289Z,2.50
2018-09-08T09:53:35.590Z,2.27
2018-09-08T09:56:39.878Z,2.33
2018-09-08T09:59:44.181Z,2.80
2018-09-08T10:03:21.364Z,2.33
2018-09-08T10:06:25.819Z,2.23
2018-09-08T10:09:30.076Z,2.90
2018-09-08T10:12:34.316Z,2.63
2018-09-08T10:15:38.556Z,2.70
2018-09-08T10:18:42.823Z,2.43
2018-09-08T10:21:47.082Z,3.10
2018-09-08T10:24:51.373Z,3.23
2018-09-08T10:27:55.682Z,2.60
2018-09-08T10:30:59.986Z,3.40
2018-09-08T10:34:04.430Z,2.90
2018-09-08T10:37:08.712Z,3.20
2018-09-08T10:40:13.866Z,3.07
2018-09-08T10:43:18.138Z,3.30
2018-09-08T10:46:22.497Z,4.53
2018-09-08T10:49:26.785Z,3.07
2018-09-08T10:52:34.286Z,3.30
2018-09-08T10:55:38.554Z,2.50
2018-09-08T10:58:42.813Z,2.10
2018-09-08T11:01:47.186Z,2.37
2018-09-08T11:04:51.515Z,2.20
2018-09-08T11:07:55.820Z,2.07
2018-09-08T11:11:00.255Z,1.87
2018-09-08T11:14:04.566Z,2.07
2018-09-08T11:17:08.867Z,2.50
2018-09-08T11:20:13.176Z,16.93
2018-09-08T11:23:17.542Z,3.10
2018-09-08T11:26:21.985Z,4.10
2018-09-08T11:29:26.316Z,1.37
2018-09-08T11:32:30.693Z,1.10
2018-09-08T11:35:34.989Z,1.97
2018-09-08T11:38:39.349Z,1.47
2018-09-08T11:41:44.091Z,1.60
2018-09-08T11:44:48.523Z,1.80
2018-09-08T11:47:52.822Z,1.60
2018-09-08T11:50:57.121Z,1.30
2018-09-08T11:54:01.419Z,2.00
2018-09-08T11:57:05.764Z,1.67
2018-09-08T12:00:10.083Z,1.47
2018-09-08T12:03:14.408Z,1.57
2018-09-08T12:06:18.709Z,1.60
2018-09-08T12:09:23.021Z,1.67
2018-09-08T12:12:27.344Z,1.67
2018-09-08T12:15:31.668Z,1.83
2018-09-08T12:18:35.906Z,2.00
2018-09-08T12:21:40.316Z,2.53
2018-09-08T12:24:44.603Z,1.63
2018-09-08T12:27:48.976Z,2.33
2018-09-08T12:30:53.427Z,1.87
2018-09-08T12:33:57.842Z,1.73
2018-09-08T12:37:02.218Z,1.70
2018-09-08T12:40:06.764Z,1.60
2018-09-08T12:43:11.096Z,1.83
2018-09-08T12:46:15.478Z,2.77
2018-09-08T12:49:19.797Z,2.27
2018-09-08T12:52:24.114Z,2.67
2018-09-08T12:55:28.441Z,2.73
2018-09-08T12:58:32.767Z,2.73
2018-09-08T13:01:37.057Z,2.67
2018-09-08T13:04:41.410Z,2.47
2018-09-08T13:07:46.066Z,2.73
2018-09-08T13:10:50.874Z,2.40
2018-09-08T13:13:55.246Z,2.40
2018-09-08T13:16:59.591Z,2.17
2018-09-08T13:20:03.856Z,2.50
2018-09-08T13:23:08.253Z,1.90
2018-09-08T13:26:12.522Z,2.10
2018-09-08T13:29:16.831Z,2.03
2018-09-08T13:32:21.095Z,1.63
2018-09-08T13:35:25.384Z,1.80
2018-09-08T13:38:29.697Z,2.90
2018-09-08T13:41:34.013Z,1.90
2018-09-08T13:44:38.434Z,1.60
2018-09-08T13:47:42.721Z,2.30
2018-09-08T13:50:47.075Z,2.03
2018-09-08T13:53:51.387Z,2.07
2018-09-08T13:56:55.714Z,1.97
2018-09-08T14:00:00.060Z,1.90
2018-09-08T14:03:04.378Z,2.00
2018-09-08T14:06:08.716Z,2.37
2018-09-08T14:09:13.008Z,2.03
2018-09-08T14:12:17.373Z,2.03
2018-09-08T14:15:21.744Z,1.80
2018-09-08T14:18:26.059Z,2.23
2018-09-08T14:21:30.361Z,2.43
2018-09-08T14:24:34.684Z,1.90
2018-09-08T14:27:39.101Z,2.10
2018-09-08T14:30:43.465Z,2.17
2018-09-08T14:33:47.878Z,1.57
2018-09-08T14:36:52.199Z,1.43
2018-09-08T14:39:56.584Z,1.70
2018-09-08T14:43:01.265Z,1.60
2018-09-08T14:46:05.596Z,2.00
2018-09-08T14:49:09.973Z,2.10
2018-09-08T14:52:15.022Z,2.03
2018-09-08T14:55:19.354Z,1.87
2018-09-08T14:58:23.770Z,2.27
2018-09-08T15:01:28.306Z,2.67
2018-09-08T15:04:32.610Z,1.70
2018-09-08T15:07:36.937Z,2.33
2018-09-08T15:10:41.210Z,2.00
2018-09-08T15:13:45.541Z,2.53
2018-09-08T15:16:49.896Z,2.13
2018-09-08T15:19:54.433Z,2.30
2018-09-08T15:22:58.841Z,1.80
2018-09-08T15:26:03.263Z,2.73
2018-09-08T15:29:07.572Z,2.00
2018-09-08T15:32:12.009Z,2.50
2018-09-08T15:35:17.082Z,1.87
2018-09-08T15:38:21.492Z,2.20
2018-09-08T15:41:25.855Z,1.90
2018-09-08T15:44:30.294Z,2.00
2018-09-08T15:47:34.649Z,1.80
2018-09-08T15:50:39.043Z,1.83
2018-09-08T15:53:43.424Z,1.80
2018-09-08T15:56:47.789Z,1.60
2018-09-08T15:59:52.219Z,2.57
2018-09-08T16:02:56.613Z,1.77
2018-09-08T16:06:01.083Z,1.80
2018-09-08T16:09:06.765Z,1.40
2018-09-08T16:12:11.095Z,1.50
2018-09-08T16:15:15.557Z,1.43
2018-09-08T16:18:19.913Z,1.50
2018-09-08T16:21:24.321Z,1.37
2018-09-08T16:24:28.718Z,1.63
2018-09-08T16:27:33.159Z,1.63
2018-09-08T16:30:37.452Z,1.70
2018-09-08T16:33:41.782Z,1.87
2018-09-08T16:36:46.072Z,1.30
2018-09-08T16:39:50.446Z,1.83
2018-09-08T16:42:54.791Z,1.83
2018-09-08T16:45:59.100Z,1.70
2018-09-08T16:49:03.586Z,1.70
2018-09-08T16:52:07.979Z,1.70
2018-09-08T16:55:12.248Z,1.57
2018-09-08T16:58:16.737Z,2.10
2018-09-08T17:01:21.142Z,2.00
2018-09-08T17:04:25.464Z,1.70
2018-09-08T17:07:30.091Z,1.87
2018-09-08T17:10:34.425Z,1.93
2018-09-08T17:13:38.676Z,2.53
2018-09-08T17:16:42.996Z,2.27
2018-09-08T17:19:47.353Z,1.83
2018-09-08T17:22:51.729Z,2.50
2018-09-08T17:25:55.996Z,2.07
2018-09-08T17:29:00.457Z,2.10
2018-09-08T17:32:04.835Z,1.80
2018-09-08T17:35:09.164Z,3.00
2018-09-08T17:38:13.581Z,2.67
2018-09-08T17:41:17.932Z,2.20
2018-09-08T17:44:22.286Z,2.90
2018-09-08T17:47:26.680Z,2.50
2018-09-08T17:50:31.053Z,2.90
2018-09-08T17:53:35.383Z,2.53
2018-09-08T17:56:39.702Z,2.80
2018-09-08T17:59:44.027Z,2.20
2018-09-08T18:02:48.314Z,2.50
2018-09-08T18:05:52.676Z,2.50
2018-09-08T18:08:56.965Z,2.80
2018-09-08T18:12:01.279Z,2.90
2018-09-08T18:15:06.946Z,2.30
2018-09-08T18:18:11.301Z,2.07
2018-09-08T18:21:15.687Z,2.27
2018-09-08T18:24:20.043Z,2.13
2018-09-08T18:27:24.436Z,2.10
2018-09-08T18:30:29.066Z,2.40
2018-09-08T18:33:33.400Z,2.33
2018-09-08T18:36:37.792Z,2.50
2018-09-08T18:39:42.124Z,2.60
2018-09-08T18:42:46.544Z,2.30
2018-09-08T18:45:51.156Z,2.63
2018-09-08T18:48:55.465Z,3.40
2018-09-08T18:52:00.382Z,3.13
2018-09-08T18:55:05.305Z,3.50
2018-09-08T18:58:10.451Z,3.50
2018-09-08T19:01:14.764Z,4.60
2018-09-08T19:04:19.180Z,4.30
2018-09-08T19:07:23.551Z,4.63
2018-09-08T19:10:30.989Z,4.70
2018-09-08T19:13:35.313Z,5.03
2018-09-08T19:16:39.781Z,5.63
2018-09-08T19:19:44.190Z,6.37
2018-09-08T19:22:49.099Z,6.13
2018-09-08T19:25:53.503Z,6.13
2018-09-08T19:29:03.030Z,6.03
2018-09-08T19:32:07.414Z,6.60
2018-09-08T19:35:17.157Z,7.20
2018-09-08T19:38:21.498Z,6.67
2018-09-08T19:41:25.958Z,7.50
2018-09-08T19:44:30.312Z,7.63
2018-09-08T19:47:40.070Z,7.50
2018-09-08T19:50:44.415Z,8.07
2018-09-08T19:53:54.070Z,7.57
2018-09-08T19:57:03.617Z,7.83
2018-09-08T20:00:08.770Z,8.13
2018-09-08T20:03:13.124Z,8.40
2018-09-08T20:06:17.457Z,8.07
2018-09-08T20:09:21.894Z,7.40
2018-09-08T20:12:26.319Z,8.37
2018-09-08T20:15:30.759Z,8.17
2018-09-08T20:18:35.113Z,8.03
2018-09-08T20:21:39.426Z,8.20
2018-09-08T20:24:43.800Z,8.63
2018-09-08T20:27:48.144Z,9.30
2018-09-08T20:30:52.480Z,9.53
2018-09-08T20:33:56.964Z,9.77
2018-09-08T20:37:01.874Z,9.40
2018-09-08T20:40:06.389Z,9.07
2018-09-08T20:43:10.864Z,10.70
2018-09-08T20:46:15.194Z,9.93
2018-09-08T20:49:19.539Z,10.43
2018-09-08T20:52:23.876Z,10.00
2018-09-08T20:55:28.424Z,10.57
2018-09-08T20:58:33.050Z,10.80
2018-09-08T21:01:37.417Z,10.97
2018-09-08T21:04:42.057Z,10.60
2018-09-08T21:07:46.509Z,9.67
2018-09-08T21:10:50.820Z,9.33
2018-09-08T21:13:55.439Z,9.17
2018-09-08T21:16:59.850Z,9.13
2018-09-08T21:20:04.483Z,8.70
2018-09-08T21:23:08.895Z,7.40
2018-09-08T21:26:13.350Z,8.20
2018-09-08T21:29:18.332Z,7.10
2018-09-08T21:32:23.378Z,6.47
2018-09-08T21:35:28.197Z,5.73
2018-09-08T21:38:33.458Z,6.43
2018-09-08T21:41:38.495Z,5.67
2018-09-08T21:44:44.059Z,5.60
2018-09-08T21:47:49.109Z,4.83
2018-09-08T21:50:53.769Z,4.40
2018-09-08T21:53:59.487Z,4.03
2018-09-08T21:57:05.260Z,4.10
2018-09-08T22:00:09.584Z,3.80
2018-09-08T22:03:13.900Z,4.07
2018-09-08T22:06:18.194Z,4.20
2018-09-08T22:09:22.539Z,3.87
2018-09-08T22:12:26.875Z,4.30
2018-09-08T22:15:31.135Z,4.90
2018-09-08T22:18:35.476Z,5.10
2018-09-08T22:21:39.798Z,4.77
2018-09-08T22:24:44.118Z,4.93
2018-09-08T22:27:48.453Z,5.07
2018-09-08T22:30:52.726Z,4.67
2018-09-08T22:33:57.051Z,4.80
2018-09-08T22:37:01.348Z,4.33
2018-09-08T22:40:05.665Z,4.63
2018-09-08T22:43:09.942Z,4.30
2018-09-08T22:46:14.281Z,4.03
2018-09-08T22:49:18.691Z,4.70
2018-09-08T22:52:23.885Z,4.73
2018-09-08T22:55:28.185Z,5.07
2018-09-08T22:58:32.449Z,5.27
2018-09-08T23:01:36.747Z,5.40
2018-09-08T23:04:41.035Z,5.47
2018-09-08T23:07:45.321Z,7.80
2018-09-08T23:10:49.754Z,7.67
2018-09-08T23:13:54.008Z,8.20
2018-09-08T23:16:58.284Z,8.73
2018-09-08T23:20:02.574Z,9.50
2018-09-08T23:23:06.921Z,10.13
2018-09-08T23:26:11.159Z,10.60
2018-09-08T23:29:15.471Z,10.13
2018-09-08T23:32:20.673Z,9.60
2018-09-08T23:35:24.969Z,10.17
2018-09-08T23:38:29.228Z,10.43
2018-09-08T23:41:33.497Z,10.23
2018-09-08T23:44:37.761Z,11.57
2018-09-08T23:47:42.069Z,11.47
2018-09-08T23:50:46.360Z,10.87
2018-09-08T23:53:50.728Z,10.57
2018-09-08T23:56:54.997Z,10.20
2018-09-08T23:59:59.280Z,9.33
